Stefan Pohl

Recruteur en chef - Werder Bremen
4 Avr 2027
Dimanche
Processus

Personnalité

Adaptabilité (18) Ambition (5) Controverse (19) Loyauté (10) Pression (11) Professionnalisme (8) Sportivité (19) Tempérament (5)

Profil

Style d'entraînement Démocratique
Diplôme Continental C
Détermination 6
Gestion des joueurs 12
Motivation 14
Discipline 7
Satisfaction professionnelle
50%
Fatigue
0%
Rôle Recruteur en chef
Salaire 107.1K p/s
Contrat 14.03.2029

Performance

Comportement Normal
Efficacité de l'entraînement
25%
Développement des joueurs
60%
Prévention des blessures
25%
Mise en place tactique
40%

Événements récents

A recommandé une cible de transfert maintenant
A recommandé une cible de transfert maintenant
A recommandé une cible de transfert maintenant
A recommandé une cible de transfert maintenant
A participé à une réunion de recrutement maintenant
A évalué un joueur maintenant
A évalué un joueur maintenant
A évalué un joueur maintenant

Suivi en cours

251
Joueur Club Statut Capacité Confiance Observé Dernière observation Dernier vote
Jean-Luc Morin Tours Actif 139 / 141 40% 2 03.04.2027 -
Danilo Botafogo Actif 135 / 129 40% 4 03.04.2027 -
Derry Scherhant SC Freiburg Actif 123 / 134 40% 2 03.04.2027 -
Aral Şimşir Trabzonspor Actif 137 / 138 40% 1 03.04.2027 -
Jacobo Ramón Napoli Actif 134 / 150 40% 1 03.04.2027 -
Carlos Fernández Oviedo Actif 128 / 134 40% 11 01.04.2027 -
Diego Costa Krasnodar Actif 141 / 151 40% 4 01.04.2027 -
Peer Koopmeiners AZ Actif 135 / 129 40% 3 01.04.2027 -
Yanis Begraoui Estoril Praia Actif 131 / 128 40% 2 01.04.2027 -
Sergi Altimira Sporting CP Actif 139 / 133 40% 1 01.04.2027 -
Elijah Dijkstra Feyenoord Actif 122 / 126 40% 2 31.03.2027 -
Axel Tape Bayer Leverkusen Actif 128 / 135 40% 1 31.03.2027 Approuver
Lior Kasa Maccabi Haifa Actif 114 / 111 40% 1 31.03.2027 -
Danylo Sikan Anderlecht Actif 128 / 120 40% 3 29.03.2027 -
Samuel Essende Young Boys Actif 125 / 120 40% 3 29.03.2027 -
Rumarn Burrell Queens Park Rangers Actif 125 / 122 40% 2 29.03.2027 -
Rafiu Durosinmi Racing Genk Actif 130 / 121 40% 3 28.03.2027 -
Bart van Rooij Twente Actif 135 / 128 40% 4 28.03.2027 -
Junnosuke Suzuki FC Copenhagen Actif 135 / 124 40% 3 28.03.2027 -
Ferreirinha Sport Recife Actif 127 / 126 40% 4 28.03.2027 -
Sambou Soumano FC Lorient Actif 125 / 127 40% 2 28.03.2027 -
Tanner Tessmann Olympique Lyonnais Actif 144 / 149 40% 1 28.03.2027 -
Matthew Litherland Blackburn Rovers Actif 107 / 106 40% 1 28.03.2027 -
Sabil Hansen Randers Actif 109 / 98 40% 1 28.03.2027 -
Francisco Chissumba Braga Actif 123 / 119 40% 1 28.03.2027 -
Juninho Utrecht Actif 127 / 124 40% 4 25.03.2027 -
Everton Bala Levski Actif 135 / 110 40% 2 25.03.2027 -
Chupete Málaga Actif 131 / 132 40% 3 23.03.2027 -
Cristian Shpendi Cesena Actif 130 / 140 40% 2 22.03.2027 -
Claudio Spinelli Vasco da Gama Actif 135 / 127 40% 6 21.03.2027 -
Kaio Jorge Cruzeiro Actif 143 / 141 40% 3 21.03.2027 -
Jackson Muleka Konyaspor Actif 123 / 110 40% 1 21.03.2027 -
Moussa Dembélé Al-Ettifaq Actif 138 / 121 40% 4 20.03.2027 -
Alexandr Sobolev Zenit Actif 135 / 120 40% 3 19.03.2027 -
Arthur Cabral Botafogo Actif 124 / 117 40% 4 19.03.2027 -
Rey Manaj Sivasspor Actif 132 / 113 40% 3 19.03.2027 -
Lucas Agazzi Defensor Sporting Actif 128 / 131 40% 1 19.03.2027 -
Facundo González River Plate Actif 103 / 110 40% 1 19.03.2027 -
Diego Rossi Monterrey Actif 130 / 138 40% 4 17.03.2027 -
Allahyar Sayyadmanesh Lech Actif 134 / 141 40% 2 17.03.2027 -
Orri Óskarsson Real Sociedad Actif 129 / 141 40% 1 17.03.2027 -
Michel Ndary Adopo Cagliari Actif 134 / 144 40% 4 16.03.2027 -
Figueiredo Alverca Actif 128 / 129 40% 1 16.03.2027 -
Hugo Rincón Athletic Bilbao Actif 140 / 143 40% 1 16.03.2027 -
Ondřej Lingr Korona Actif 122 / 136 40% 1 14.03.2027 -
Álex Forés Burgos Actif 133 / 133 40% 2 13.03.2027 -
Enes Ünal Getafe Actif 140 / 133 40% 3 12.03.2027 -
José Manuel López Palmeiras Actif 136 / 131 40% 9 12.03.2027 -
Ragnar Ache Köln Actif 130 / 140 40% 5 11.03.2027 -
Oli McBurnie Hull City Actif 134 / 143 40% 5 11.03.2027 -
Adrian Benedyczak Kasimpasa Actif 127 / 130 40% 2 11.03.2027 -
Tiago Freitas Benfica Actif 111 / 109 40% 1 11.03.2027 -
Enoch Mastoras Ajax Actif 125 / 121 40% 1 11.03.2027 -
Khalfan Nader Al Shaab Actif 101 / 107 40% 1 11.03.2027 -
Morgan Whittaker Middlesbrough Actif 132 / 122 40% 2 10.03.2027 -
Ozziel Herrera Tigres Actif 134 / 137 40% 2 10.03.2027 -
Marco Brescianini Fiorentina Actif 145 / 134 40% 1 08.03.2027 -
Johannes Eggestein Austria Wien Actif 130 / 116 40% 4 07.03.2027 -
Juan Carlos Arana Racing Santander Actif 134 / 120 40% 4 07.03.2027 -
Roger Brugué Levante Actif 134 / 137 40% 6 05.03.2027 -
Luciano Gondou CSKA Moscow Actif 125 / 132 40% 7 05.03.2027 -
Efraín Álvarez Guadalajara Actif 126 / 144 40% 10 04.03.2027 -
Martinelli Fluminense Actif 147 / 142 40% 6 04.03.2027 -
Marcos Antonio Sport Recife Actif 138 / 124 40% 5 04.03.2027 -
Mohamed Simakan Al-Nassr Actif 147 / 130 40% 5 04.03.2027 -
Soufiane Rahimi Al Ain Actif 141 / 153 40% 5 02.03.2027 -
Sergio Quintero La Equidad Actif 145 / 126 40% 1 02.03.2027 -
Eduardo Quaresma Sporting CP Actif 143 / 141 40% 3 01.03.2027 -
Christos Zafeiris Galatasaray Actif 132 / 124 40% 3 01.03.2027 -
Ardon Jashari AC Milan Actif 135 / 146 40% 6 27.02.2027 -
Marcus Holmgren Pedersen Olympiacos Actif 141 / 144 40% 4 27.02.2027 -
Marlon Gomes Shakhtar Actif 130 / 142 40% 4 25.02.2027 -
Sergio Carreira Celta Actif 136 / 136 40% 2 25.02.2027 -
Thierry Rendall Correia Venezia Actif 146 / 129 40% 4 23.02.2027 Observer
Enrico Delprato Parma Actif 137 / 140 40% 1 23.02.2027 -
Vitão Flamengo Actif 136 / 141 40% 4 22.02.2027 -
Lorenzo Pirola Olympiacos Actif 127 / 128 40% 2 22.02.2027 -
Alexandre Penetra AZ Actif 138 / 144 40% 1 19.02.2027 -
Felipe Loyola Pisa Actif 135 / 129 40% 5 18.02.2027 -
Maxence Caqueret Como Actif 131 / 135 40% 1 13.02.2027 -
Pedro Henrique Shakhtar Actif 138 / 117 40% 1 10.02.2027 -
Sergiño Dest PSV Actif 137 / 140 40% 1 08.02.2027 -
Odilon Kossounou Atalanta Actif 144 / 147 40% 1 07.02.2027 -
Nicolò Bertola Udinese Actif 135 / 133 40% 1 02.02.2027 -
Takashi Usami FC Augsburg Perdu 123 / 136 79% 1 25.01.2027 Approuver
Lorenzo Pirola Olympiacos Perdu 130 / 146 40% 1 25.01.2027 -
Tanguy Nianzou LOSC Lille Actif 130 / 124 40% 1 24.01.2027 -
Kiliann Sildillia PSV Actif 137 / 125 40% 1 24.01.2027 -
Jakub Moder Feyenoord Actif 138 / 145 40% 1 24.01.2027 -
Rodrigo Huescas FC Copenhagen Actif 142 / 132 40% 2 23.01.2027 -
Sikou Niakaté Braga Actif 137 / 135 40% 2 23.01.2027 -
Nacer Tielemans Mouscron Actif 130 / 142 40% 1 19.01.2027 -
Axel Tape Bayer Leverkusen Perdu 125 / 123 79% 1 11.01.2027 Approuver
Yorbe Vertessen Red Bull Salzburg Actif 131 / 120 40% 1 03.01.2027 -
Brian Gutiérrez Guadalajara Actif 134 / 144 40% 1 03.01.2027 -
Bruno Gomes Internacional Perdu 126 / 146 40% 1 03.01.2027 -
Oleh Ocheretko Shakhtar Actif 132 / 133 40% 1 03.01.2027 -
Israel Reyes Club America Actif 137 / 137 68% 1 01.01.2027 Approuver
Luiz Henrique Zenit Rapport prêt 142 / 143 68% 1 01.01.2027 Approuver
Igoh Ogbu Racing Genk Actif 146 / 146 66% 1 01.01.2027 Approuver
Roberto Alvarado Guadalajara Actif 139 / 139 66% 1 01.01.2027 Approuver
Bitello Dinamo Moscow Actif 135 / 135 68% 1 01.01.2027 Approuver
Felipe Augusto Zenit Actif 137 / 120 40% 3 31.12.2026 -
Rafik Guitane Estoril Praia Actif 131 / 127 40% 1 31.12.2026 -
Facundo Pellistri Panathinaikos Actif 124 / 127 40% 1 31.12.2026 -
Bernardo TSG Hoffenheim Actif 139 / 133 40% 4 29.12.2026 -
Grischa Prömel Heidenheim Actif 140 / 150 40% 2 29.12.2026 -
Andreas Pereira Palmeiras Actif 141 / 134 40% 1 29.12.2026 -
Mahamadou Doumbia Al-Ittihad Actif 123 / 131 40% 1 29.12.2026 -
Jhon Jhon Zenit Actif 130 / 116 40% 1 29.12.2026 -
Michael Cooper Sheffield United Actif 133 / 137 40% 2 27.12.2026 -
Esequiel Barco Spartak Moscow Actif 138 / 130 40% 1 27.12.2026 -
Pascal Loretz Luzern Actif 126 / 126 40% 1 27.12.2026 -
George Wickens Lincoln City Actif 113 / 118 40% 1 27.12.2026 -
Michy Fellaini KV Oostende Actif 134 / 134 40% 8 24.12.2026 -
Erik Prekop Gornik Zabrze Actif 132 / 109 40% 2 23.12.2026 -
Jason Januzaj Mouscron Actif 151 / 137 40% 4 22.12.2026 -
Alexis Vega Toluca Actif 140 / 149 40% 8 20.12.2026 -
Malcom Al Jazira Actif 147 / 161 40% 3 19.12.2026 -
Nicolás Fernández Belgrano Actif 124 / 125 40% 2 19.12.2026 -
Lukas Klostermann RB Leipzig Actif 138 / 141 40% 1 19.12.2026 -
Ezequiel Ponce Elche Actif 132 / 136 40% 2 17.12.2026 -
Nemanja Radonjić Crvena Zvezda Actif 137 / 114 40% 4 17.12.2026 -
Adriano Bertaccini Anderlecht Actif 130 / 115 40% 2 17.12.2026 -
Zizo Al Ahly Actif 135 / 144 40% 1 17.12.2026 -
Cesar Corona Veracruz Actif 144 / 128 40% 9 14.12.2026 -
Sergej Milinković-Savić Al-Hilal Actif 153 / 141 40% 1 14.12.2026 -
Matheus Pereira Cruzeiro Actif 145 / 133 40% 1 14.12.2026 -
Ola Solbakken FC Nordsjaelland Actif 126 / 117 40% 2 12.12.2026 -
Jakub Surovčík Sparta Prague Actif 114 / 119 40% 1 12.12.2026 -
Antonio Gomis Vizela Actif 121 / 118 40% 1 12.12.2026 -
Matthieu Epolo Standard Liege Actif 116 / 123 40% 1 12.12.2026 -
Exequiel Zeballos Boca Juniors Actif 126 / 130 40% 3 08.12.2026 -
Fashion Sakala Al-Fayha Actif 127 / 114 40% 3 08.12.2026 -
Guilherme Fernandes Córdoba Actif 127 / 133 40% 3 07.12.2026 -
Hugo Souza Corinthians Actif 133 / 130 40% 1 07.12.2026 -
Jens Petter Hauge Bodo/Glimt Actif 133 / 148 40% 4 05.12.2026 -
Kenny Tete Fulham Actif 148 / 145 40% 1 05.12.2026 -
Youssef En-Nesyri Al-Ittihad Actif 146 / 129 40% 5 03.12.2026 -
Nicolò Tresoldi Club Brugge Actif 137 / 128 40% 4 03.12.2026 -
Benjamin Henrichs RB Leipzig Actif 150 / 146 40% 1 02.12.2026 -
Mehdi Ghayedi Al Nasr Actif 127 / 129 40% 2 30.11.2026 -
Diber Cambindo Leon Actif 122 / 143 40% 5 29.11.2026 -
Isi Palazón Rayo Vallecano Actif 142 / 149 40% 2 28.11.2026 -
Amine El Ouazzani Braga Actif 130 / 126 40% 3 28.11.2026 -
Mexx Meerdink AZ Actif 134 / 124 40% 1 27.11.2026 -
José Gayà Valencia Actif 138 / 141 40% 3 26.11.2026 -
Alejandro Zendejas Club America Actif 141 / 149 40% 4 26.11.2026 -
Seiya Maikuma AZ Actif 141 / 127 40% 1 26.11.2026 -
Che Adams Torino Actif 134 / 139 40% 3 23.11.2026 -
Ismael Díaz Leon Actif 123 / 122 40% 1 23.11.2026 -
Heorhii Yermakov Metalist Actif 122 / 106 40% 1 23.11.2026 -
Oleksandr Saputin Zorya Actif 112 / 106 40% 1 23.11.2026 -
Mio Backhaus SC Freiburg Actif 133 / 138 40% 1 23.11.2026 -
Brenner Vasco da Gama Actif 134 / 117 40% 1 19.11.2026 -
Gorka Guruzeta Athletic Bilbao Actif 142 / 148 40% 5 18.11.2026 -
Ellyes Skhiri Köln Actif 143 / 127 40% 2 18.11.2026 -
Chris Ramos Botafogo Actif 121 / 135 40% 1 18.11.2026 -
Luis Romo Guadalajara Actif 140 / 122 40% 2 16.11.2026 -
Héctor Bellerín Betis Actif 145 / 134 40% 1 16.11.2026 -
José Paradela Cruz Azul Actif 137 / 152 40% 2 14.11.2026 -
Emanuele Valeri Parma Actif 134 / 137 40% 1 13.11.2026 -
Marcel Ruiz Toluca Actif 138 / 146 40% 4 12.11.2026 -
Axel Openda KV Oostende Actif 132 / 130 40% 3 09.11.2026 -
Theo Bongonda Al-Faisaly Actif 142 / 139 40% 1 09.11.2026 -
Wessam Abou Ali Columbus Crew Actif 131 / 116 40% 3 07.11.2026 -
Mateo Cassierra Atlético Mineiro Actif 132 / 131 40% 3 07.11.2026 -
Kévin Denkey FC Cincinnati Actif 123 / 122 40% 2 06.11.2026 -
Dejan Joveljić Seattle Sounders Actif 120 / 140 40% 1 06.11.2026 -
Chris Brady Chicago Fire Actif 124 / 133 40% 1 06.11.2026 -
Jakub Stolarczyk Leicester City Actif 136 / 139 40% 1 06.11.2026 -
Gonzalo Plata Dinamo Moscow Actif 127 / 122 40% 5 04.11.2026 -
Lukáš Provod Slavia Prague Actif 149 / 154 40% 3 03.11.2026 -
Jon Guridi Sevilla Actif 139 / 130 40% 1 03.11.2026 -
Sandro Las Palmas Actif 136 / 137 40% 1 03.11.2026 -
Fiete Arp OB Actif 125 / 130 40% 1 01.11.2026 -
Conrad Harder RB Leipzig Actif 133 / 149 40% 2 31.10.2026 -
Hugo Cuypers Monterrey Actif 120 / 141 40% 1 30.10.2026 -
Manfred Ugalde Spartak Moscow Actif 132 / 116 40% 1 29.10.2026 -
Phillip Tietz Mainz 05 Actif 131 / 125 40% 1 24.10.2026 -
Aitor Ruibal Betis Actif 138 / 133 40% 1 24.10.2026 -
Hidemasa Morita Hull City Actif 138 / 144 40% 1 23.10.2026 -
Sebastián Villa Boca Juniors Actif 127 / 121 40% 3 22.10.2026 -
Sorriso Famalicao Actif 126 / 136 40% 2 22.10.2026 -
Jesús Vázquez Valencia Actif 137 / 137 40% 1 22.10.2026 -
Joaquín Pereyra Minnesota United FC Actif 129 / 132 40% 2 19.10.2026 -
Juan Bisanz Huracán Actif 124 / 117 40% 1 19.10.2026 -
Anthony Racioppi Sion Actif 125 / 126 40% 2 18.10.2026 -
Sergio Reguilón Inter Miami CF Actif 136 / 133 40% 2 18.10.2026 -
Javi Galán Celta Actif 145 / 150 40% 1 18.10.2026 -
Isidro Pitta Bragantino Actif 126 / 123 40% 1 14.10.2026 -
Sam Surridge Nashville SC Actif 136 / 139 40% 4 13.10.2026 -
Marvin Keller Young Boys Actif 143 / 144 40% 2 13.10.2026 -
Niklas Steffen Thun Actif 115 / 115 40% 1 13.10.2026 -
Kostantis Tzolakis Hull City Actif 134 / 150 40% 1 13.10.2026 -
Luca Orellano Monterrey Actif 140 / 142 40% 4 11.10.2026 -
Iván Martín Racing Club Actif 146 / 127 40% 2 11.10.2026 -
Mojmír Chytil Besiktas Actif 132 / 150 40% 1 11.10.2026 -
Urko Izeta Cádiz Actif 131 / 120 40% 4 09.10.2026 -
Tobias Bech AGF Actif 135 / 144 40% 4 08.10.2026 -
Luis Vázquez Birmingham Actif 126 / 137 40% 2 08.10.2026 -
Ilias Akhomach Villarreal Actif 136 / 152 40% 1 08.10.2026 -
Miguel Merentiel Boca Juniors Actif 136 / 135 40% 1 07.10.2026 -
Maurits Kjærgaard Red Bull Salzburg Actif 131 / 137 40% 2 05.10.2026 -
Hwang Hee-Chan Wolverhampton Actif 131 / 136 40% 2 02.10.2026 -
Patrick Schulte Columbus Crew Actif 121 / 133 40% 1 01.10.2026 -
Fernando Gorriarán Tigres Actif 133 / 153 40% 2 29.09.2026 -
Yuma Suzuki Kashima Antlers Actif 133 / 147 40% 1 29.09.2026 -
Yasuto Wakizaka Kawasaki Frontale Actif 142 / 151 40% 1 29.09.2026 -
Oscar Gloukh Ajax Actif 128 / 135 40% 1 27.09.2026 -
Diego Conde Villarreal Actif 135 / 127 40% 2 25.09.2026 -
Ryan Gauld Vancouver Whitecaps Actif 129 / 124 40% 1 25.09.2026 -
Ramy Bensebaini Borussia Dortmund Actif 141 / 154 40% 1 25.09.2026 -
Jonathan Bamba Chicago Fire Actif 132 / 148 40% 1 25.09.2026 -
Anthony Patterson Wrexham Actif 132 / 121 40% 1 25.09.2026 -
Gustavo Puerta Racing Santander Actif 139 / 148 40% 1 25.09.2026 -
Aune Heggebø West Bromwich Albion Actif 124 / 138 40% 1 23.09.2026 -
Lucien Agoumé Sevilla Actif 137 / 130 40% 1 21.09.2026 -
Ritsu Doan Gamba Osaka Actif 151 / 135 40% 2 16.09.2026 -
Alan Velasco Boca Juniors Actif 136 / 133 40% 1 15.09.2026 -
Timo Werner San Jose Earthquakes Actif 121 / 122 40% 1 12.09.2026 -
Óliver Monterrey Actif 130 / 130 40% 1 12.09.2026 -
Paul Nebel Mainz 05 Actif 134 / 153 40% 1 12.09.2026 -
Ferland Mendy Real Madrid Actif 139 / 139 40% 1 12.09.2026 -
Mauro Arambarri River Plate Actif 154 / 170 40% 2 10.09.2026 -
Jon Karrikaburu Burgos Actif 129 / 131 40% 4 08.09.2026 -
Robert Andrich Bayer Leverkusen Actif 152 / 139 40% 1 05.09.2026 -
Alejandro Balde Barcelona Actif 153 / 160 40% 1 05.09.2026 -
Dani Raba Valencia Actif 130 / 142 40% 1 04.09.2026 -
Igor Matanović SC Freiburg Actif 133 / 130 40% 1 04.09.2026 -
Jon Morcillo Almería Actif 128 / 120 40% 2 01.09.2026 -
Pedro Flamengo Actif 139 / 156 40% 2 31.08.2026 -
Allan Saint-Maximin Charlotte Football Club Actif 140 / 127 40% 1 31.08.2026 -
Mutsuki Kato Sanfrecce Hiroshima Actif 123 / 125 40% 1 29.08.2026 -
Talles Magno New York City Actif 127 / 146 40% 1 29.08.2026 -
Vitor Roque Palmeiras Actif 135 / 137 40% 1 28.08.2026 -
Rafael Santos Borré River Plate Actif 123 / 141 40% 2 27.08.2026 -
Lucas Boyé Alavés Actif 138 / 146 40% 2 25.08.2026 -
Yuri Alberto Corinthians Actif 141 / 150 40% 1 23.08.2026 -
Barış Alper Yılmaz Galatasaray Actif 149 / 145 40% 1 22.08.2026 -
Petar Musa FC Dallas Actif 137 / 150 40% 1 19.08.2026 -
Kerem Aktürkoğlu Fenerbahce Actif 132 / 128 40% 1 18.08.2026 -
James McConnell Liverpool Actif 117 / 121 40% 1 16.08.2026 -
Corsin Konietzke St. Gallen Actif 105 / 113 40% 1 15.08.2026 -
Ignacio Perruzzi San Lorenzo Actif 126 / 118 40% 1 14.08.2026 -
Arjan Malić Sturm Graz Actif 118 / 126 40% 1 14.08.2026 -
Soumaïla Diabaté Red Bull Salzburg Actif 109 / 108 40% 2 12.08.2026 -
John Mellberg Red Bull Salzburg Actif 112 / 116 40% 1 12.08.2026 -
Umar Sadiq Valencia Actif 137 / 136 40% 1 02.08.2026 -
Elías Báez Atlanta United FC Actif 125 / 135 40% 1 02.08.2026 -
Dayann Methalie Sunderland Actif 121 / 142 40% 1 02.08.2026 -